createdAt,value
2016-06-13T00:00:18.653Z,997.22
2016-06-13T00:01:18.641Z,997.22
2016-06-13T00:02:18.613Z,997.21
2016-06-13T00:03:18.584Z,997.18
2016-06-13T00:04:18.555Z,997.2
2016-06-13T00:05:18.559Z,997.17
2016-06-13T00:06:18.515Z,997.16
2016-06-13T00:07:18.534Z,997.14
2016-06-13T00:08:18.489Z,997.13
2016-06-13T00:09:18.462Z,997.1
2016-06-13T00:10:18.434Z,997.09
2016-06-13T00:11:18.421Z,997.06
2016-06-13T00:12:18.408Z,997.07
2016-06-13T00:13:18.444Z,997.07
2016-06-13T00:14:18.368Z,997.06
2016-06-13T00:15:18.339Z,997.05
2016-06-13T00:16:18.327Z,997.03
2016-06-13T00:17:18.315Z,997.01
2016-06-13T00:18:18.287Z,996.98
2016-06-13T00:19:18.258Z,996.97
2016-06-13T00:20:18.246Z,996.93
2016-06-13T00:21:18.233Z,996.94
2016-06-13T00:22:18.205Z,996.9
2016-06-13T00:23:18.177Z,996.91
2016-06-13T00:24:18.165Z,996.92
2016-06-13T00:25:18.136Z,996.87
2016-06-13T00:26:18.123Z,996.91
2016-06-13T00:27:18.095Z,996.9
2016-06-13T00:28:18.082Z,996.9
2016-06-13T00:29:18.055Z,996.89
2016-06-13T00:30:18.042Z,996.86
2016-06-13T00:31:18.013Z,996.9
2016-06-13T00:32:18.002Z,996.9
2016-06-13T00:33:17.989Z,996.93
2016-06-13T00:34:17.961Z,996.9
2016-06-13T00:35:17.995Z,996.9
2016-06-13T00:36:17.904Z,996.89
2016-06-13T00:37:17.892Z,996.88
2016-06-13T00:38:17.879Z,996.85
2016-06-13T00:39:17.851Z,996.84
2016-06-13T00:40:17.839Z,996.84
2016-06-13T00:41:17.810Z,996.85
2016-06-13T00:42:17.797Z,996.85
2016-06-13T00:43:17.770Z,996.84
2016-06-13T00:44:17.757Z,996.77
2016-06-13T00:45:17.728Z,996.79
2016-06-13T00:46:17.717Z,996.81
2016-06-13T00:47:17.687Z,996.82
2016-06-13T00:48:17.660Z,996.81
2016-06-13T00:49:17.647Z,996.79
2016-06-13T00:50:17.635Z,996.77
2016-06-13T00:51:17.607Z,996.76
2016-06-13T00:52:17.594Z,996.74
2016-06-13T00:53:17.566Z,996.74
2016-06-13T00:54:17.554Z,996.73
2016-06-13T00:55:17.525Z,996.7
2016-06-13T00:56:17.576Z,996.68
2016-06-13T00:57:17.532Z,996.67
2016-06-13T00:58:17.472Z,996.64
2016-06-13T00:59:17.444Z,996.68
2016-06-13T01:00:17.431Z,996.65
2016-06-13T01:01:17.403Z,996.65
2016-06-13T01:02:17.375Z,996.62
2016-06-13T01:03:17.362Z,996.6
2016-06-13T01:04:17.350Z,996.57
2016-06-13T01:05:17.322Z,996.59
2016-06-13T01:06:17.309Z,996.55
2016-06-13T01:07:17.390Z,996.55
2016-06-13T01:08:17.253Z,996.53
2016-06-13T01:09:17.240Z,996.51
2016-06-13T01:10:17.227Z,996.49
2016-06-13T01:11:17.261Z,996.46
2016-06-13T01:12:17.172Z,996.49
2016-06-13T01:13:17.159Z,996.42
2016-06-13T01:14:17.208Z,996.46
2016-06-13T01:15:17.102Z,996.42
2016-06-13T01:16:17.105Z,996.44
2016-06-13T01:17:17.093Z,996.44
2016-06-13T01:18:17.049Z,996.41
2016-06-13T01:19:17.130Z,996.4
2016-06-13T01:20:17.024Z,996.44
2016-06-13T01:21:16.995Z,996.4
2016-06-13T01:22:16.968Z,996.36
2016-06-13T01:23:16.956Z,996.37
2016-06-13T01:24:16.926Z,996.32
2016-06-13T01:25:16.914Z,996.37
2016-06-13T01:26:17.057Z,996.3
2016-06-13T01:27:16.874Z,996.29
2016-06-13T01:28:16.846Z,996.3
2016-06-13T01:29:16.833Z,996.27
2016-06-13T01:30:16.805Z,996.28
2016-06-13T01:31:16.792Z,996.3
2016-06-13T01:32:16.764Z,996.32
2016-06-13T01:33:16.751Z,996.3
2016-06-13T01:34:16.724Z,996.25
2016-06-13T01:35:16.710Z,996.27
2016-06-13T01:36:16.698Z,996.23
2016-06-13T01:37:16.655Z,996.23
2016-06-13T01:38:16.642Z,996.26
2016-06-13T01:39:16.630Z,996.23
2016-06-13T01:40:16.600Z,996.22
2016-06-13T01:41:17.167Z,996.22
2016-06-13T01:42:16.560Z,996.17
2016-06-13T01:43:16.548Z,996.16
2016-06-13T01:44:16.520Z,996.13
2016-06-13T01:45:16.492Z,996.12
2016-06-13T01:46:16.463Z,996.1
2016-06-13T01:47:16.450Z,996.08
2016-06-13T01:48:16.438Z,996.06
2016-06-13T01:49:16.410Z,996.08
2016-06-13T01:50:16.398Z,996.06
2016-06-13T01:51:16.369Z,996.04
2016-06-13T01:52:16.356Z,996.08
2016-06-13T01:53:16.359Z,996.03
2016-06-13T01:54:16.316Z,996
2016-06-13T01:55:16.334Z,996
2016-06-13T01:56:16.869Z,996.01
2016-06-13T01:57:16.263Z,995.93
2016-06-13T01:58:16.234Z,995.95
2016-06-13T01:59:16.206Z,995.94
2016-06-13T02:00:16.178Z,995.95
2016-06-13T02:01:16.182Z,995.91
2016-06-13T02:02:16.137Z,995.9
2016-06-13T02:03:16.124Z,995.91
2016-06-13T02:04:16.097Z,995.87
2016-06-13T02:05:16.084Z,995.87
2016-06-13T02:06:16.072Z,995.86
2016-06-13T02:07:16.044Z,995.88
2016-06-13T02:08:16.014Z,995.85
2016-06-13T02:09:16.003Z,995.86
2016-06-13T02:10:15.975Z,995.86
2016-06-13T02:11:15.962Z,995.87
2016-06-13T02:12:15.934Z,995.89
2016-06-13T02:13:15.921Z,995.84
2016-06-13T02:14:15.908Z,995.85
2016-06-13T02:15:15.881Z,995.84
2016-06-13T02:16:15.868Z,995.85
2016-06-13T02:17:15.839Z,995.84
2016-06-13T02:18:15.920Z,995.81
2016-06-13T02:19:15.799Z,995.82
2016-06-13T02:20:15.787Z,995.81
2016-06-13T02:21:15.759Z,995.79
2016-06-13T02:22:15.730Z,995.77
2016-06-13T02:23:15.733Z,995.78
2016-06-13T02:24:15.689Z,995.8
2016-06-13T02:25:15.661Z,995.78
2016-06-13T02:26:15.649Z,995.79
2016-06-13T02:27:15.620Z,995.76
2016-06-13T02:28:15.608Z,995.76
2016-06-13T02:29:15.596Z,995.73
2016-06-13T02:30:15.567Z,995.73
2016-06-13T02:31:15.540Z,995.68
2016-06-13T02:32:15.605Z,995.64
2016-06-13T02:33:15.514Z,995.66
2016-06-13T02:34:15.485Z,995.67
2016-06-13T02:35:15.473Z,995.64
2016-06-13T02:36:15.461Z,995.64
2016-06-13T02:37:15.417Z,995.63
2016-06-13T02:38:15.389Z,995.59
2016-06-13T02:39:15.376Z,995.61
2016-06-13T02:40:15.363Z,995.62
2016-06-13T02:41:15.335Z,995.56
2016-06-13T02:42:15.323Z,995.54
2016-06-13T02:43:15.295Z,995.51
2016-06-13T02:44:15.283Z,995.54
2016-06-13T02:45:15.269Z,995.49
2016-06-13T02:46:15.242Z,995.44
2016-06-13T02:47:15.214Z,995.44
2016-06-13T02:48:15.201Z,995.45
2016-06-13T02:49:15.187Z,995.47
2016-06-13T02:50:15.159Z,995.44
2016-06-13T02:51:15.163Z,995.44
2016-06-13T02:52:15.119Z,995.42
2016-06-13T02:53:15.091Z,995.44
2016-06-13T02:54:15.078Z,995.42
2016-06-13T02:55:15.067Z,995.43
2016-06-13T02:56:15.037Z,995.44
2016-06-13T02:57:15.009Z,995.45
2016-06-13T02:58:14.982Z,995.46
2016-06-13T02:59:14.969Z,995.46
2016-06-13T03:00:14.941Z,995.45
2016-06-13T03:01:14.927Z,995.47
2016-06-13T03:02:14.900Z,995.47
2016-06-13T03:03:14.888Z,995.48
2016-06-13T03:04:14.859Z,995.52
2016-06-13T03:05:14.831Z,995.52
2016-06-13T03:06:14.818Z,995.49
2016-06-13T03:07:14.806Z,995.46
2016-06-13T03:08:14.825Z,995.49
2016-06-13T03:09:14.781Z,995.43
2016-06-13T03:10:14.737Z,995.48
2016-06-13T03:11:14.709Z,995.41
2016-06-13T03:12:14.697Z,995.44
2016-06-13T03:13:14.668Z,995.4
2016-06-13T03:14:14.656Z,995.38
2016-06-13T03:15:14.659Z,995.35
2016-06-13T03:16:14.614Z,995.32
2016-06-13T03:17:14.587Z,995.31
2016-06-13T03:18:14.590Z,995.31
2016-06-13T03:19:14.562Z,995.28
2016-06-13T03:20:14.533Z,995.26
2016-06-13T03:21:14.506Z,995.28
2016-06-13T03:22:14.524Z,995.25
2016-06-13T03:23:14.464Z,995.23
2016-06-13T03:24:14.436Z,995.24
2016-06-13T03:25:14.440Z,995.25
2016-06-13T03:26:14.395Z,995.21
2016-06-13T03:27:14.670Z,995.21
2016-06-13T03:28:14.417Z,995.21
2016-06-13T03:29:14.460Z,995.22
2016-06-13T03:30:14.473Z,995.18
2016-06-13T03:31:14.485Z,995.18
2016-06-13T03:32:14.499Z,995.16
2016-06-13T03:33:14.499Z,995.15
2016-06-13T03:34:14.471Z,995.13
2016-06-13T03:35:14.472Z,995.13
2016-06-13T03:36:14.459Z,995.11
2016-06-13T03:37:14.455Z,995.11
2016-06-13T03:38:14.432Z,995.09
2016-06-13T03:39:14.441Z,995.09
2016-06-13T03:40:14.418Z,995.07
2016-06-13T03:41:15.114Z,995.05
2016-06-13T03:42:14.683Z,995.06
2016-06-13T03:43:14.359Z,995.05
2016-06-13T03:44:14.333Z,995.03
2016-06-13T03:45:14.323Z,995
2016-06-13T03:46:14.343Z,994.98
2016-06-13T03:47:14.286Z,994.96
2016-06-13T03:48:14.258Z,994.98
2016-06-13T03:49:14.230Z,994.98
2016-06-13T03:50:14.265Z,994.98
2016-06-13T03:51:14.191Z,994.95
2016-06-13T03:52:14.180Z,994.96
2016-06-13T03:53:14.150Z,994.91
2016-06-13T03:54:14.139Z,994.94
2016-06-13T03:55:14.172Z,994.92
2016-06-13T03:56:14.098Z,994.89
2016-06-13T03:57:14.085Z,994.88
2016-06-13T03:58:14.057Z,994.88
2016-06-13T03:59:14.029Z,994.88
2016-06-13T04:00:14.016Z,994.83
2016-06-13T04:01:14.222Z,994.84
2016-06-13T04:02:13.975Z,994.79
2016-06-13T04:03:13.948Z,994.83
2016-06-13T04:04:13.934Z,994.81
2016-06-13T04:05:13.923Z,994.79
2016-06-13T04:06:13.925Z,994.81
2016-06-13T04:07:13.960Z,994.84
2016-06-13T04:08:13.916Z,994.86
2016-06-13T04:09:13.871Z,994.86
2016-06-13T04:10:13.860Z,994.85
2016-06-13T04:11:13.847Z,994.86
2016-06-13T04:12:13.834Z,994.85
2016-06-13T04:13:13.806Z,994.86
2016-06-13T04:14:13.778Z,994.82
2016-06-13T04:15:13.734Z,994.77
2016-06-13T04:16:13.691Z,994.78
2016-06-13T04:17:13.662Z,994.75
2016-06-13T04:18:13.634Z,994.76
2016-06-13T04:19:13.622Z,994.8
2016-06-13T04:20:13.609Z,994.77
2016-06-13T04:21:13.580Z,994.78
2016-06-13T04:22:13.552Z,994.77
2016-06-13T04:23:13.539Z,994.76
2016-06-13T04:24:13.528Z,994.79
2016-06-13T04:25:13.499Z,994.76
2016-06-13T04:26:13.470Z,994.75
2016-06-13T04:27:13.443Z,994.77
2016-06-13T04:28:13.430Z,994.76
2016-06-13T04:29:13.402Z,994.73
2016-06-13T04:30:13.389Z,994.72
2016-06-13T04:31:13.362Z,994.71
2016-06-13T04:32:13.349Z,994.72
2016-06-13T04:33:13.320Z,994.68
2016-06-13T04:34:13.308Z,994.68
2016-06-13T04:35:13.279Z,994.66
2016-06-13T04:36:13.268Z,994.69
2016-06-13T04:37:13.239Z,994.68
2016-06-13T04:38:13.227Z,994.69
2016-06-13T04:39:13.214Z,994.69
2016-06-13T04:40:13.186Z,994.68
2016-06-13T04:41:13.158Z,994.71
2016-06-13T04:42:13.145Z,994.64
2016-06-13T04:43:13.117Z,994.66
2016-06-13T04:44:13.090Z,994.65
2016-06-13T04:45:13.076Z,994.68
2016-06-13T04:46:13.095Z,994.63
2016-06-13T04:47:13.036Z,994.64
2016-06-13T04:48:13.007Z,994.69
2016-06-13T04:49:12.994Z,994.64
2016-06-13T04:50:12.982Z,994.66
2016-06-13T04:51:12.954Z,994.66
2016-06-13T04:52:12.926Z,994.66
2016-06-13T04:53:12.914Z,994.64
2016-06-13T04:54:12.885Z,994.63
2016-06-13T04:55:12.873Z,994.63
2016-06-13T04:56:12.844Z,994.64
2016-06-13T04:57:12.817Z,994.66
2016-06-13T04:58:12.805Z,994.67
2016-06-13T04:59:12.791Z,994.63
2016-06-13T05:00:12.763Z,994.66
2016-06-13T05:01:12.751Z,994.64
2016-06-13T05:02:12.738Z,994.67
2016-06-13T05:03:12.695Z,994.63
2016-06-13T05:04:12.682Z,994.64
2016-06-13T05:05:12.668Z,994.59
2016-06-13T05:06:12.641Z,994.66
2016-06-13T05:07:12.628Z,994.63
2016-06-13T05:08:12.600Z,994.62
2016-06-13T05:09:12.588Z,994.62
2016-06-13T05:10:12.559Z,994.61
2016-06-13T05:11:12.531Z,994.58
2016-06-13T05:12:12.518Z,994.62
2016-06-13T05:13:12.490Z,994.56
2016-06-13T05:14:12.479Z,994.55
2016-06-13T05:15:12.466Z,994.52
2016-06-13T05:16:12.437Z,994.53
2016-06-13T05:17:12.409Z,994.52
2016-06-13T05:18:12.381Z,994.51
2016-06-13T05:19:12.369Z,994.5
2016-06-13T05:20:12.356Z,994.53
2016-06-13T05:21:12.328Z,994.55
2016-06-13T05:22:12.315Z,994.54
2016-06-13T05:23:12.302Z,994.52
2016-06-13T05:24:12.337Z,994.51
2016-06-13T05:25:12.246Z,994.53
2016-06-13T05:26:12.234Z,994.57
2016-06-13T05:27:12.206Z,994.53
2016-06-13T05:28:12.192Z,994.54
2016-06-13T05:29:12.164Z,994.53
2016-06-13T05:30:12.153Z,994.46
2016-06-13T05:31:12.202Z,994.44
2016-06-13T05:32:12.127Z,994.49
2016-06-13T05:33:12.099Z,994.47
2016-06-13T05:34:12.118Z,994.47
2016-06-13T05:35:12.105Z,994.43
2016-06-13T05:36:12.077Z,994.41
2016-06-13T05:37:12.314Z,994.43
2016-06-13T05:38:12.036Z,994.43
2016-06-13T05:39:11.961Z,994.42
2016-06-13T05:40:11.933Z,994.44
2016-06-13T05:47:12.001Z,994.3
2016-06-13T05:48:14.786Z,994.32
2016-06-13T05:49:14.757Z,994.29
2016-06-13T05:50:14.776Z,994.26
2016-06-13T05:51:11.904Z,994.25
2016-06-13T05:52:11.704Z,994.26
2016-06-13T05:53:11.723Z,994.28
2016-06-13T05:54:11.664Z,994.29
2016-06-13T05:55:11.636Z,994.23
2016-06-13T05:56:11.622Z,994.26
2016-06-13T05:57:11.595Z,994.26
2016-06-13T05:58:11.567Z,994.24
2016-06-13T05:59:11.554Z,994.25
2016-06-13T06:00:11.526Z,994.24
2016-06-13T06:01:11.512Z,994.24
2016-06-13T06:02:11.501Z,994.28
2016-06-13T06:03:11.472Z,994.28
2016-06-13T06:04:11.444Z,994.33
2016-06-13T06:05:11.416Z,994.26
2016-06-13T06:06:11.404Z,994.28
2016-06-13T06:07:11.375Z,994.32
2016-06-13T06:08:11.362Z,994.3
2016-06-13T06:09:11.334Z,994.29
2016-06-13T06:10:11.322Z,994.26
2016-06-13T06:11:11.294Z,994.24
2016-06-13T06:12:11.281Z,994.27
2016-06-13T06:13:11.253Z,994.23
2016-06-13T06:14:11.272Z,994.25
2016-06-13T06:15:11.228Z,994.23
2016-06-13T06:16:11.184Z,994.24
2016-06-13T06:17:11.187Z,994.24
2016-06-13T06:18:11.159Z,994.25
2016-06-13T06:19:11.131Z,994.27
2016-06-13T06:20:11.118Z,994.26
2016-06-13T06:21:11.090Z,994.3
2016-06-13T06:22:11.077Z,994.31
2016-06-13T06:23:11.097Z,994.32
2016-06-13T06:24:11.022Z,994.35
2016-06-13T06:25:11.024Z,994.38
2016-06-13T06:26:10.981Z,994.37
2016-06-13T06:27:10.968Z,994.43
2016-06-13T06:28:10.940Z,994.42
2016-06-13T06:29:10.927Z,994.37
2016-06-13T06:30:10.915Z,994.37
2016-06-13T06:31:10.886Z,994.36
2016-06-13T06:32:10.858Z,994.33
2016-06-13T06:33:10.846Z,994.35
2016-06-13T06:34:10.818Z,994.37
2016-06-13T06:35:10.806Z,994.35
2016-06-13T06:36:10.793Z,994.41
2016-06-13T06:37:10.764Z,994.35
2016-06-13T06:38:10.736Z,994.41
2016-06-13T06:39:10.724Z,994.42
2016-06-13T06:40:10.711Z,994.39
2016-06-13T06:41:10.667Z,994.37
2016-06-13T06:42:10.655Z,994.36
2016-06-13T06:43:10.642Z,994.41
2016-06-13T06:44:10.614Z,994.38
2016-06-13T06:45:10.601Z,994.41
2016-06-13T06:46:10.573Z,994.39
2016-06-13T06:47:10.624Z,994.36
2016-06-13T06:48:10.532Z,994.36
2016-06-13T06:49:10.505Z,994.35
2016-06-13T06:50:10.491Z,994.34
2016-06-13T06:51:10.464Z,994.36
2016-06-13T06:52:10.467Z,994.36
2016-06-13T06:53:10.423Z,994.33
2016-06-13T06:54:10.411Z,994.34
2016-06-13T06:55:10.381Z,994.3
2016-06-13T06:56:10.370Z,994.28
2016-06-13T06:57:10.357Z,994.26
2016-06-13T06:58:10.329Z,994.24
2016-06-13T06:59:10.301Z,994.3
2016-06-13T07:00:10.288Z,994.3
2016-06-13T07:01:10.261Z,994.27
2016-06-13T07:02:10.247Z,994.28
2016-06-13T07:03:10.219Z,994.3
2016-06-13T07:04:10.192Z,994.28
2016-06-13T07:05:10.179Z,994.3
2016-06-13T07:06:10.166Z,994.28
2016-06-13T07:07:10.138Z,994.25
2016-06-13T07:08:10.110Z,994.25
2016-06-13T07:09:10.097Z,994.22
2016-06-13T07:10:10.085Z,994.2
2016-06-13T07:11:10.056Z,994.21
2016-06-13T07:12:10.028Z,994.18
2016-06-13T07:13:10.015Z,994.16
2016-06-13T07:14:09.988Z,994.15
2016-06-13T07:15:09.959Z,994.14
2016-06-13T07:16:09.947Z,994.17
2016-06-13T07:17:09.935Z,994.14
2016-06-13T07:18:09.906Z,994.13
2016-06-13T07:19:09.878Z,994.11
2016-06-13T07:20:09.896Z,994.14
2016-06-13T07:21:09.853Z,994.12
2016-06-13T07:22:09.825Z,994.11
2016-06-13T07:23:09.812Z,994.12
2016-06-13T07:24:09.799Z,994.09
2016-06-13T07:25:09.772Z,994.08
2016-06-13T07:26:09.743Z,994.1
2016-06-13T07:27:09.746Z,994.13
2016-06-13T07:28:10.125Z,994.14
2016-06-13T07:29:09.690Z,994.15
2016-06-13T07:30:09.661Z,994.1
2016-06-13T07:31:09.649Z,994.14
2016-06-13T07:32:09.620Z,994.13
2016-06-13T07:33:09.593Z,994.12
2016-06-13T07:34:09.579Z,994.13
2016-06-13T07:35:09.552Z,994.13
2016-06-13T07:36:09.649Z,994.17
2016-06-13T07:37:09.527Z,994.18
2016-06-13T07:38:09.717Z,994.19
2016-06-13T07:39:09.486Z,994.18
2016-06-13T07:40:09.458Z,994.17
2016-06-13T07:41:09.446Z,994.18
2016-06-13T07:42:09.417Z,994.13
2016-06-13T07:43:09.390Z,994.11
2016-06-13T07:44:09.408Z,994.12
2016-06-13T07:45:09.363Z,994.12
2016-06-13T07:46:09.335Z,994.06
2016-06-13T07:47:09.308Z,994.08
2016-06-13T07:48:09.295Z,994.08
2016-06-13T07:49:09.267Z,994.08
2016-06-13T07:50:09.254Z,994.05
2016-06-13T07:51:09.226Z,994.05
2016-06-13T07:52:09.214Z,994.05
2016-06-13T07:53:09.202Z,994.01
2016-06-13T07:54:09.173Z,994.03
2016-06-13T07:55:09.144Z,994
2016-06-13T07:56:09.133Z,994.01
2016-06-13T07:57:09.105Z,994.04
2016-06-13T07:58:10.091Z,994.07
2016-06-13T07:59:09.111Z,994.05
2016-06-13T08:00:09.207Z,994.09
2016-06-13T08:01:09.023Z,994.12
2016-06-13T08:02:08.995Z,994.08
2016-06-13T08:03:08.982Z,994.08
2016-06-13T08:04:08.969Z,994.05
2016-06-13T08:05:08.941Z,994.05
2016-06-13T08:06:08.928Z,994.03
2016-06-13T08:07:08.900Z,994.06
2016-06-13T08:08:08.888Z,994.03
2016-06-13T08:09:08.860Z,994.09
2016-06-13T08:10:08.847Z,994.09
2016-06-13T08:11:08.818Z,994.08
2016-06-13T08:12:09.151Z,994.08
2016-06-13T08:13:08.779Z,994.09
2016-06-13T08:14:08.765Z,994.06
2016-06-13T08:15:08.738Z,994.07
2016-06-13T08:16:08.724Z,994.1
2016-06-13T08:17:08.697Z,994.11
2016-06-13T08:18:08.669Z,994.1
2016-06-13T08:19:08.656Z,994.1
2016-06-13T08:20:08.753Z,994.11
2016-06-13T08:21:08.632Z,994.09
2016-06-13T08:22:08.587Z,994.15
2016-06-13T08:23:08.794Z,994.09
2016-06-13T08:24:08.890Z,994.15
2016-06-13T08:25:08.533Z,994.12
2016-06-13T08:26:08.522Z,994.11
2016-06-13T08:27:11.509Z,994.12
2016-06-13T08:28:08.464Z,994.11
2016-06-13T08:29:08.468Z,994.13
2016-06-13T08:30:08.424Z,994.15
2016-06-13T08:31:08.412Z,994.14
2016-06-13T08:32:08.383Z,994.12
2016-06-13T08:33:08.371Z,994.15
2016-06-13T08:34:08.343Z,994.09
2016-06-13T08:35:08.330Z,994.08
2016-06-13T08:36:08.365Z,994.08
2016-06-13T08:37:08.337Z,994.08
2016-06-13T08:38:08.262Z,994.05
2016-06-13T08:39:08.264Z,994.05
2016-06-13T08:40:08.315Z,994.06
2016-06-13T08:41:08.208Z,994.03
2016-06-13T08:42:08.195Z,994.03
2016-06-13T08:43:08.167Z,994.02
2016-06-13T08:44:08.139Z,994.05
2016-06-13T08:45:08.127Z,994.03
2016-06-13T08:46:08.098Z,994.02
2016-06-13T08:47:08.086Z,993.98
2016-06-13T08:48:08.073Z,994.04
2016-06-13T08:49:08.046Z,994.02
2016-06-13T08:50:08.017Z,994.03
2016-06-13T08:51:08.098Z,994.04
2016-06-13T08:52:08.039Z,994.02
2016-06-13T08:53:07.964Z,994
2016-06-13T08:54:07.935Z,993.95
2016-06-13T08:55:07.923Z,993.97
2016-06-13T08:56:07.895Z,993.97
2016-06-13T08:57:07.898Z,993.97
2016-06-13T08:58:08.604Z,993.97
2016-06-13T08:59:07.841Z,993.99
2016-06-13T09:00:07.813Z,993.97
2016-06-13T09:01:07.802Z,993.97
2016-06-13T09:02:07.788Z,993.95
2016-06-13T09:03:07.760Z,993.99
2016-06-13T09:04:07.731Z,993.95
2016-06-13T09:05:07.720Z,993.92
2016-06-13T09:06:07.800Z,993.89
2016-06-13T09:07:07.679Z,993.91
2016-06-13T09:08:07.666Z,993.91
2016-06-13T09:09:07.638Z,993.87
2016-06-13T09:10:07.610Z,993.88
2016-06-13T09:11:07.596Z,993.85
2016-06-13T09:12:07.585Z,993.85
2016-06-13T09:13:07.916Z,993.89
2016-06-13T09:14:07.528Z,993.87
2016-06-13T09:15:07.500Z,993.85
2016-06-13T09:16:07.504Z,993.88
2016-06-13T09:17:07.475Z,993.84
2016-06-13T09:18:07.446Z,993.89
2016-06-13T09:19:07.435Z,993.89
2016-06-13T09:20:07.422Z,993.89
2016-06-13T09:21:07.455Z,993.89
2016-06-13T09:22:07.381Z,993.87
2016-06-13T09:23:07.353Z,993.9
2016-06-13T09:24:07.339Z,993.91
2016-06-13T09:25:07.312Z,993.91
2016-06-13T09:26:07.284Z,993.94
2016-06-13T09:27:07.271Z,993.94
2016-06-13T09:28:07.243Z,993.93
2016-06-13T09:29:07.247Z,993.88
2016-06-13T09:30:07.218Z,993.89
2016-06-13T09:31:07.174Z,993.86
2016-06-13T09:32:07.162Z,993.84
2016-06-13T09:33:07.150Z,993.84
2016-06-13T09:34:07.121Z,993.83
2016-06-13T09:35:07.109Z,993.85
2016-06-13T09:36:07.189Z,993.86
2016-06-13T09:37:07.068Z,993.84
2016-06-13T09:38:07.040Z,993.85
2016-06-13T09:39:07.027Z,993.81
2016-06-13T09:40:06.999Z,993.8
2016-06-13T09:41:06.986Z,993.82
2016-06-13T09:42:06.958Z,993.77
2016-06-13T09:43:06.946Z,993.77
2016-06-13T09:44:06.934Z,993.8
2016-06-13T09:45:06.904Z,993.81
2016-06-13T09:46:06.876Z,993.81
2016-06-13T09:47:06.864Z,993.79
2016-06-13T09:48:06.836Z,993.78
2016-06-13T09:49:06.807Z,993.77
2016-06-13T09:50:06.795Z,993.76
2016-06-13T09:51:06.783Z,993.77
2016-06-13T09:52:06.754Z,993.77
2016-06-13T09:53:06.742Z,993.77
2016-06-13T09:54:06.714Z,993.77
2016-06-13T09:55:06.686Z,993.77
2016-06-13T09:56:06.673Z,993.8
2016-06-13T09:57:06.660Z,993.81
2016-06-13T09:58:06.633Z,993.78
2016-06-13T09:59:06.604Z,993.74
2016-06-13T10:00:06.607Z,993.72
2016-06-13T10:01:06.563Z,993.76
2016-06-13T10:02:06.551Z,993.75
2016-06-13T10:03:06.538Z,993.69
2016-06-13T10:04:06.509Z,993.68
2016-06-13T10:05:06.498Z,993.7
2016-06-13T10:06:06.469Z,993.7
2016-06-13T10:07:06.457Z,993.66
2016-06-13T10:08:06.428Z,993.59
2016-06-13T10:09:06.417Z,993.55
2016-06-13T10:10:06.388Z,993.56
2016-06-13T10:11:06.375Z,993.56
2016-06-13T10:12:06.348Z,993.52
2016-06-13T10:13:06.648Z,993.53
2016-06-13T10:14:06.321Z,993.53
2016-06-13T10:15:06.309Z,993.52
2016-06-13T10:16:06.282Z,993.51
2016-06-13T10:17:06.253Z,993.49
2016-06-13T10:18:06.256Z,993.47
2016-06-13T10:19:06.211Z,993.45
2016-06-13T10:20:06.200Z,993.45
2016-06-13T10:21:06.187Z,993.44
2016-06-13T10:22:06.159Z,993.44
2016-06-13T10:23:06.146Z,993.43
2016-06-13T10:24:06.119Z,993.4
2016-06-13T10:25:06.090Z,993.43
2016-06-13T10:26:06.077Z,993.41
2016-06-13T10:27:06.065Z,993.42
2016-06-13T10:28:06.037Z,993.45
2016-06-13T10:29:06.025Z,993.43
2016-06-13T10:30:05.995Z,993.43
2016-06-13T10:31:05.999Z,993.38
2016-06-13T10:32:05.956Z,993.34
2016-06-13T10:33:05.943Z,993.32
2016-06-13T10:34:05.915Z,993.34
2016-06-13T10:35:05.919Z,993.33
2016-06-13T10:36:05.889Z,993.29
2016-06-13T10:37:05.861Z,993.27
2016-06-13T10:38:05.849Z,993.29
2016-06-13T10:39:05.820Z,993.26
2016-06-13T10:40:05.792Z,993.25
2016-06-13T10:41:05.780Z,993.23
2016-06-13T10:42:05.768Z,993.23
2016-06-13T10:43:05.740Z,993.2
2016-06-13T10:44:08.788Z,993.21
2016-06-13T10:45:05.699Z,993.18
2016-06-13T10:46:05.686Z,993.16
2016-06-13T10:47:05.658Z,993.15
2016-06-13T10:48:05.645Z,993.1
2016-06-13T10:49:05.617Z,993.13
2016-06-13T10:50:05.604Z,993.11
2016-06-13T10:51:05.592Z,993.14
2016-06-13T10:52:05.563Z,993.08
2016-06-13T10:53:05.551Z,993.08
2016-06-13T10:54:05.538Z,993.06
2016-06-13T10:55:05.511Z,993
2016-06-13T10:56:05.530Z,993.01
2016-06-13T10:57:05.470Z,993.04
2016-06-13T10:58:05.457Z,993
2016-06-13T10:59:05.445Z,993.04
2016-06-13T11:00:05.417Z,993.1
2016-06-13T11:01:05.388Z,993.07
2016-06-13T11:02:05.391Z,993.05
2016-06-13T11:03:05.347Z,993.06
2016-06-13T11:04:05.335Z,993.05
2016-06-13T11:05:05.307Z,993.09
2016-06-13T11:06:05.295Z,993.14
2016-06-13T11:07:05.267Z,993.09
2016-06-13T11:08:05.301Z,993.11
2016-06-13T11:09:05.241Z,993.13
2016-06-13T11:10:05.260Z,993.17
2016-06-13T11:11:05.201Z,993.15
2016-06-13T11:12:05.172Z,993.18
2016-06-13T11:13:05.738Z,993.17
2016-06-13T11:14:05.131Z,993.17
2016-06-13T11:15:05.119Z,993.24
2016-06-13T11:16:05.153Z,993.18
2016-06-13T11:17:05.078Z,993.18
2016-06-13T11:18:05.050Z,993.17
2016-06-13T11:19:05.037Z,993.16
2016-06-13T11:20:05.010Z,993.14
2016-06-13T11:21:04.997Z,993.11
2016-06-13T11:22:04.969Z,993.15
2016-06-13T11:23:04.955Z,993.13
2016-06-13T11:24:04.944Z,993.09
2016-06-13T11:25:04.915Z,993.08
2016-06-13T11:26:04.903Z,993.07
2016-06-13T11:27:04.906Z,993.08
2016-06-13T11:28:04.862Z,993.02
2016-06-13T11:29:05.427Z,993.02
2016-06-13T11:30:04.837Z,993
2016-06-13T11:31:04.824Z,993.02
2016-06-13T11:32:04.780Z,993.03
2016-06-13T11:33:04.768Z,993.01
2016-06-13T11:34:04.772Z,993.03
2016-06-13T11:35:04.728Z,993.01
2016-06-13T11:36:04.715Z,993.01
2016-06-13T11:37:04.687Z,992.99
2016-06-13T11:38:04.690Z,993.04
2016-06-13T11:39:04.662Z,993.04
2016-06-13T11:40:04.633Z,992.99
2016-06-13T11:41:04.621Z,993.03
2016-06-13T11:42:04.639Z,993.03
2016-06-13T11:43:04.580Z,992.99
2016-06-13T11:44:04.584Z,992.98
2016-06-13T11:45:04.556Z,993.01
2016-06-13T11:46:04.604Z,992.98
2016-06-13T11:47:04.482Z,993.01
2016-06-13T11:48:04.470Z,993.02
2016-06-13T11:49:04.457Z,993.02
2016-06-13T11:50:04.429Z,993.03
2016-06-13T11:51:04.417Z,993.01
2016-06-13T11:52:04.389Z,993
2016-06-13T11:53:04.376Z,992.96
2016-06-13T11:54:04.348Z,992.98
2016-06-13T11:55:04.336Z,992.96
2016-06-13T11:56:04.323Z,992.94
2016-06-13T11:57:04.296Z,992.95
2016-06-13T11:58:04.266Z,992.92
2016-06-13T11:59:04.269Z,992.88
2016-06-13T12:00:04.241Z,992.89
2016-06-13T12:01:04.226Z,992.86
2016-06-13T12:02:04.214Z,992.86
2016-06-13T12:03:04.186Z,992.83
2016-06-13T12:04:04.156Z,992.87
2016-06-13T12:05:04.145Z,992.86
2016-06-13T12:06:04.116Z,992.85
2016-06-13T12:07:04.103Z,992.83
2016-06-13T12:08:04.076Z,992.81
2016-06-13T12:09:04.094Z,992.81
2016-06-13T12:10:04.066Z,992.81
2016-06-13T12:11:04.022Z,992.79
2016-06-13T12:12:03.994Z,992.79
2016-06-13T12:13:04.028Z,992.81
2016-06-13T12:14:04.000Z,992.78
2016-06-13T12:15:04.034Z,992.78
2016-06-13T12:16:03.929Z,992.75
2016-06-13T12:17:03.900Z,992.76
2016-06-13T12:18:03.887Z,992.8
2016-06-13T12:19:03.860Z,992.73
2016-06-13T12:20:03.863Z,992.73
2016-06-13T12:21:03.819Z,992.7
2016-06-13T12:22:03.822Z,992.66
2016-06-13T12:23:03.794Z,992.68
2016-06-13T12:24:03.765Z,992.66
2016-06-13T12:25:03.753Z,992.7
2016-06-13T12:26:03.725Z,992.71
2016-06-13T12:27:03.712Z,992.66
2016-06-13T12:28:03.746Z,992.68
2016-06-13T12:29:03.672Z,992.64
2016-06-13T12:30:03.659Z,992.65
2016-06-13T12:31:03.647Z,992.65
2016-06-13T12:32:03.617Z,992.66
2016-06-13T12:33:03.606Z,992.62
2016-06-13T12:34:03.624Z,992.67
2016-06-13T12:35:03.621Z,992.61
2016-06-13T12:36:03.650Z,992.58